sensor_id;sensor_type;location;lat;lon;timestamp;pressure;altitude;pressure_sealevel;temperature;humidity
70546;BME280;58098;51.680;5.134;2022-11-21T00:00:21;100669.00;;;5.53;100.00
70546;BME280;58098;51.680;5.134;2022-11-21T00:02:47;100680.84;;;5.57;100.00
70546;BME280;58098;51.680;5.134;2022-11-21T00:05:13;100683.22;;;5.60;100.00
70546;BME280;58098;51.680;5.134;2022-11-21T00:07:38;100669.66;;;5.56;100.00
70546;BME280;58098;51.680;5.134;2022-11-21T00:10:04;100680.19;;;5.67;100.00
70546;BME280;58098;51.680;5.134;2022-11-21T00:12:29;100666.59;;;5.78;100.00
70546;BME280;58098;51.680;5.134;2022-11-21T00:14:54;100675.38;;;5.75;100.00
70546;BME280;58098;51.680;5.134;2022-11-21T00:17:20;100672.06;;;5.73;100.00
70546;BME280;58098;51.680;5.134;2022-11-21T00:19:45;100636.47;;;5.63;100.00
70546;BME280;58098;51.680;5.134;2022-11-21T00:22:10;100637.94;;;5.53;100.00
70546;BME280;58098;51.680;5.134;2022-11-21T00:24:36;100667.44;;;5.50;100.00
70546;BME280;58098;51.680;5.134;2022-11-21T00:27:01;100671.44;;;5.42;100.00
70546;BME280;58098;51.680;5.134;2022-11-21T00:29:27;100667.16;;;5.26;100.00
70546;BME280;58098;51.680;5.134;2022-11-21T00:31:52;100680.38;;;5.22;100.00
70546;BME280;58098;51.680;5.134;2022-11-21T00:34:17;100680.25;;;5.09;100.00
70546;BME280;58098;51.680;5.134;2022-11-21T00:36:43;100676.47;;;5.01;100.00
70546;BME280;58098;51.680;5.134;2022-11-21T00:39:08;100677.09;;;4.90;100.00
70546;BME280;58098;51.680;5.134;2022-11-21T00:41:33;100687.25;;;4.93;100.00
70546;BME280;58098;51.680;5.134;2022-11-21T00:43:59;100674.22;;;4.81;100.00
70546;BME280;58098;51.680;5.134;2022-11-21T00:46:24;100672.91;;;4.74;100.00
70546;BME280;58098;51.680;5.134;2022-11-21T00:48:49;100690.81;;;4.77;100.00
70546;BME280;58098;51.680;5.134;2022-11-21T00:51:15;100695.59;;;4.68;100.00
70546;BME280;58098;51.680;5.134;2022-11-21T00:53:40;100679.78;;;4.59;100.00
70546;BME280;58098;51.680;5.134;2022-11-21T00:56:06;100686.59;;;4.60;100.00
70546;BME280;58098;51.680;5.134;2022-11-21T00:58:31;100683.09;;;4.61;100.00
70546;BME280;58098;51.680;5.134;2022-11-21T01:01:11;100693.69;;;4.56;100.00
70546;BME280;58098;51.680;5.134;2022-11-21T01:03:37;100678.31;;;4.39;100.00
70546;BME280;58098;51.680;5.134;2022-11-21T01:06:07;100691.81;;;4.44;100.00
70546;BME280;58098;51.680;5.134;2022-11-21T01:08:35;100691.13;;;4.41;100.00
70546;BME280;58098;51.680;5.134;2022-11-21T01:11:02;100679.22;;;4.38;100.00
70546;BME280;58098;51.680;5.134;2022-11-21T01:13:28;100663.66;;;4.24;100.00
70546;BME280;58098;51.680;5.134;2022-11-21T01:15:53;100669.84;;;4.22;100.00
70546;BME280;58098;51.680;5.134;2022-11-21T01:18:19;100672.94;;;4.28;100.00
70546;BME280;58098;51.680;5.134;2022-11-21T01:20:44;100664.69;;;4.22;100.00
70546;BME280;58098;51.680;5.134;2022-11-21T01:23:09;100658.78;;;4.20;100.00
70546;BME280;58098;51.680;5.134;2022-11-21T01:25:35;100659.66;;;4.19;100.00
70546;BME280;58098;51.680;5.134;2022-11-21T01:28:00;100678.31;;;4.24;100.00
70546;BME280;58098;51.680;5.134;2022-11-21T01:30:25;100673.59;;;4.16;100.00
70546;BME280;58098;51.680;5.134;2022-11-21T01:32:51;100663.03;;;4.05;100.00
70546;BME280;58098;51.680;5.134;2022-11-21T01:35:17;100678.69;;;4.02;100.00
70546;BME280;58098;51.680;5.134;2022-11-21T01:37:45;100686.41;;;4.02;100.00
70546;BME280;58098;51.680;5.134;2022-11-21T01:40:11;100678.19;;;3.95;100.00
70546;BME280;58098;51.680;5.134;2022-11-21T01:42:50;100696.34;;;3.94;100.00
70546;BME280;58098;51.680;5.134;2022-11-21T01:48:15;100668.84;;;3.77;100.00
70546;BME280;58098;51.680;5.134;2022-11-21T01:50:41;100667.50;;;3.70;100.00
70546;BME280;58098;51.680;5.134;2022-11-21T01:53:07;100687.50;;;3.82;100.00
70546;BME280;58098;51.680;5.134;2022-11-21T01:55:33;100683.66;;;3.74;100.00
70546;BME280;58098;51.680;5.134;2022-11-21T01:57:58;100687.91;;;3.75;100.00
70546;BME280;58098;51.680;5.134;2022-11-21T02:00:26;100695.97;;;3.69;100.00
70546;BME280;58098;51.680;5.134;2022-11-21T02:02:58;100694.31;;;3.68;100.00
70546;BME280;58098;51.680;5.134;2022-11-21T02:05:28;100699.81;;;3.62;100.00
70546;BME280;58098;51.680;5.134;2022-11-21T02:07:58;100681.00;;;3.60;100.00
70546;BME280;58098;51.680;5.134;2022-11-21T02:10:26;100688.25;;;3.69;100.00
70546;BME280;58098;51.680;5.134;2022-11-21T02:12:57;100663.69;;;3.62;100.00
70546;BME280;58098;51.680;5.134;2022-11-21T02:15:25;100665.34;;;3.63;100.00
70546;BME280;58098;51.680;5.134;2022-11-21T02:17:51;100675.19;;;3.72;100.00
70546;BME280;58098;51.680;5.134;2022-11-21T02:20:20;100675.44;;;3.67;100.00
70546;BME280;58098;51.680;5.134;2022-11-21T02:25:37;100685.50;;;3.72;100.00
70546;BME280;58098;51.680;5.134;2022-11-21T02:28:05;100684.47;;;3.59;100.00
70546;BME280;58098;51.680;5.134;2022-11-21T02:30:34;100687.78;;;3.45;100.00
70546;BME280;58098;51.680;5.134;2022-11-21T02:33:01;100698.75;;;3.49;100.00
70546;BME280;58098;51.680;5.134;2022-11-21T02:35:26;100690.88;;;3.52;100.00
70546;BME280;58098;51.680;5.134;2022-11-21T02:38:05;100681.78;;;3.45;100.00
70546;BME280;58098;51.680;5.134;2022-11-21T02:40:38;100688.59;;;3.46;100.00
70546;BME280;58098;51.680;5.134;2022-11-21T02:43:15;100686.22;;;3.43;100.00
70546;BME280;58098;51.680;5.134;2022-11-21T02:45:43;100703.09;;;3.48;100.00
70546;BME280;58098;51.680;5.134;2022-11-21T02:48:10;100682.88;;;3.41;100.00
70546;BME280;58098;51.680;5.134;2022-11-21T02:50:41;100698.75;;;3.49;100.00
70546;BME280;58098;51.680;5.134;2022-11-21T02:53:11;100690.44;;;3.44;100.00
70546;BME280;58098;51.680;5.134;2022-11-21T02:55:37;100689.78;;;3.56;100.00
70546;BME280;58098;51.680;5.134;2022-11-21T02:58:03;100683.00;;;3.55;100.00
70546;BME280;58098;51.680;5.134;2022-11-21T03:00:28;100681.16;;;3.57;100.00
70546;BME280;58098;51.680;5.134;2022-11-21T03:02:54;100676.66;;;3.60;100.00
70546;BME280;58098;51.680;5.134;2022-11-21T03:05:20;100684.16;;;3.65;100.00
70546;BME280;58098;51.680;5.134;2022-11-21T03:07:46;100674.91;;;3.61;100.00
70546;BME280;58098;51.680;5.134;2022-11-21T03:10:12;100685.16;;;3.62;100.00
70546;BME280;58098;51.680;5.134;2022-11-21T03:12:38;100680.00;;;3.62;100.00
70546;BME280;58098;51.680;5.134;2022-11-21T03:15:05;100678.41;;;3.60;100.00
70546;BME280;58098;51.680;5.134;2022-11-21T03:17:31;100669.00;;;3.59;100.00
70546;BME280;58098;51.680;5.134;2022-11-21T03:19:57;100687.50;;;3.67;100.00
70546;BME280;58098;51.680;5.134;2022-11-21T03:22:22;100672.91;;;3.66;100.00
70546;BME280;58098;51.680;5.134;2022-11-21T03:24:48;100665.94;;;3.68;100.00
70546;BME280;58098;51.680;5.134;2022-11-21T03:27:13;100654.13;;;3.64;100.00
70546;BME280;58098;51.680;5.134;2022-11-21T03:29:38;100656.78;;;3.62;100.00
70546;BME280;58098;51.680;5.134;2022-11-21T03:32:03;100673.66;;;3.68;100.00
70546;BME280;58098;51.680;5.134;2022-11-21T03:34:29;100677.09;;;3.68;100.00
70546;BME280;58098;51.680;5.134;2022-11-21T03:36:54;100677.19;;;3.67;100.00
70546;BME280;58098;51.680;5.134;2022-11-21T03:39:19;100656.09;;;3.59;100.00
70546;BME280;58098;51.680;5.134;2022-11-21T03:41:45;100670.59;;;3.61;100.00
70546;BME280;58098;51.680;5.134;2022-11-21T03:44:11;100667.34;;;3.58;100.00
70546;BME280;58098;51.680;5.134;2022-11-21T03:46:42;100671.34;;;3.63;100.00
70546;BME280;58098;51.680;5.134;2022-11-21T03:49:08;100660.38;;;3.60;100.00
70546;BME280;58098;51.680;5.134;2022-11-21T03:51:34;100661.09;;;3.62;100.00
70546;BME280;58098;51.680;5.134;2022-11-21T03:54:00;100671.09;;;3.68;100.00
70546;BME280;58098;51.680;5.134;2022-11-21T03:56:26;100664.69;;;3.59;100.00
70546;BME280;58098;51.680;5.134;2022-11-21T03:58:52;100661.41;;;3.56;100.00
70546;BME280;58098;51.680;5.134;2022-11-21T04:01:18;100644.34;;;3.38;100.00
70546;BME280;58098;51.680;5.134;2022-11-21T04:03:44;100671.59;;;3.59;100.00
70546;BME280;58098;51.680;5.134;2022-11-21T04:06:12;100653.03;;;3.52;100.00
70546;BME280;58098;51.680;5.134;2022-11-21T04:08:37;100645.53;;;3.48;100.00
70546;BME280;58098;51.680;5.134;2022-11-21T04:11:03;100639.69;;;3.44;100.00
70546;BME280;58098;51.680;5.134;2022-11-21T04:13:28;100654.03;;;3.50;100.00
70546;BME280;58098;51.680;5.134;2022-11-21T04:15:53;100643.28;;;3.42;100.00
70546;BME280;58098;51.680;5.134;2022-11-21T04:18:19;100648.28;;;3.45;100.00
70546;BME280;58098;51.680;5.134;2022-11-21T04:20:44;100650.69;;;3.48;100.00
70546;BME280;58098;51.680;5.134;2022-11-21T04:23:09;100670.25;;;3.52;100.00
70546;BME280;58098;51.680;5.134;2022-11-21T04:25:35;100658.50;;;3.46;100.00
70546;BME280;58098;51.680;5.134;2022-11-21T04:28:02;100669.34;;;3.53;100.00
70546;BME280;58098;51.680;5.134;2022-11-21T04:30:28;100650.84;;;3.45;100.00
70546;BME280;58098;51.680;5.134;2022-11-21T04:32:54;100661.66;;;3.51;100.00
70546;BME280;58098;51.680;5.134;2022-11-21T04:35:24;100655.16;;;3.44;100.00
70546;BME280;58098;51.680;5.134;2022-11-21T04:37:50;100640.03;;;3.38;100.00
70546;BME280;58098;51.680;5.134;2022-11-21T04:40:16;100632.69;;;3.30;100.00
70546;BME280;58098;51.680;5.134;2022-11-21T04:42:42;100643.59;;;3.36;100.00
70546;BME280;58098;51.680;5.134;2022-11-21T04:45:09;100631.94;;;3.28;100.00
70546;BME280;58098;51.680;5.134;2022-11-21T04:47:39;100642.69;;;3.37;100.00
70546;BME280;58098;51.680;5.134;2022-11-21T04:50:05;100631.16;;;3.26;100.00
70546;BME280;58098;51.680;5.134;2022-11-21T04:52:31;100637.84;;;3.30;100.00
70546;BME280;58098;51.680;5.134;2022-11-21T04:54:56;100637.84;;;3.30;100.00
70546;BME280;58098;51.680;5.134;2022-11-21T04:57:22;100631.03;;;3.29;100.00
70546;BME280;58098;51.680;5.134;2022-11-21T04:59:48;100616.03;;;3.20;100.00
70546;BME280;58098;51.680;5.134;2022-11-21T05:02:13;100623.38;;;3.28;100.00
70546;BME280;58098;51.680;5.134;2022-11-21T05:04:39;100620.72;;;3.29;100.00
70546;BME280;58098;51.680;5.134;2022-11-21T05:07:04;100620.81;;;3.28;100.00
70546;BME280;58098;51.680;5.134;2022-11-21T05:09:30;100615.09;;;3.21;100.00
70546;BME280;58098;51.680;5.134;2022-11-21T05:11:55;100609.53;;;3.13;100.00
70546;BME280;58098;51.680;5.134;2022-11-21T05:14:39;100612.41;;;3.07;100.00
70546;BME280;58098;51.680;5.134;2022-11-21T05:17:04;100612.28;;;3.10;100.00
70546;BME280;58098;51.680;5.134;2022-11-21T05:19:29;100606.38;;;3.08;100.00
70546;BME280;58098;51.680;5.134;2022-11-21T05:21:54;100589.56;;;3.01;100.00
70546;BME280;58098;51.680;5.134;2022-11-21T05:24:20;100579.56;;;2.95;100.00
70546;BME280;58098;51.680;5.134;2022-11-21T05:26:46;100585.63;;;2.94;100.00
70546;BME280;58098;51.680;5.134;2022-11-21T05:29:11;100585.47;;;2.97;100.00
70546;BME280;58098;51.680;5.134;2022-11-21T05:31:37;100567.41;;;2.82;100.00
70546;BME280;58098;51.680;5.134;2022-11-21T05:34:02;100578.53;;;2.82;100.00
70546;BME280;58098;51.680;5.134;2022-11-21T05:36:28;100568.69;;;2.73;100.00
70546;BME280;58098;51.680;5.134;2022-11-21T05:38:53;100572.19;;;2.72;100.00
70546;BME280;58098;51.680;5.134;2022-11-21T05:41:18;100580.28;;;2.82;100.00
70546;BME280;58098;51.680;5.134;2022-11-21T05:43:43;100567.66;;;2.77;100.00
70546;BME280;58098;51.680;5.134;2022-11-21T05:46:13;100580.03;;;2.86;100.00
70546;BME280;58098;51.680;5.134;2022-11-21T05:48:39;100576.78;;;2.83;100.00
70546;BME280;58098;51.680;5.134;2022-11-21T05:51:05;100571.56;;;2.84;100.00
70546;BME280;58098;51.680;5.134;2022-11-21T05:53:30;100550.66;;;2.73;100.00
70546;BME280;58098;51.680;5.134;2022-11-21T05:56:01;100558.16;;;2.78;100.00
70546;BME280;58098;51.680;5.134;2022-11-21T05:58:27;100563.38;;;2.76;100.00
70546;BME280;58098;51.680;5.134;2022-11-21T06:00:55;100556.88;;;2.69;100.00
70546;BME280;58098;51.680;5.134;2022-11-21T06:03:22;100550.16;;;2.66;100.00
70546;BME280;58098;51.680;5.134;2022-11-21T06:08:43;100563.31;;;2.78;100.00
70546;BME280;58098;51.680;5.134;2022-11-21T06:11:14;100570.22;;;2.77;100.00
70546;BME280;58098;51.680;5.134;2022-11-21T06:13:39;100548.47;;;2.65;100.00
70546;BME280;58098;51.680;5.134;2022-11-21T06:18:32;100550.06;;;2.68;100.00
70546;BME280;58098;51.680;5.134;2022-11-21T06:21:09;100540.69;;;2.67;100.00
70546;BME280;58098;51.680;5.134;2022-11-21T06:23:36;100537.47;;;2.79;100.00
70546;BME280;58098;51.680;5.134;2022-11-21T06:26:04;100528.31;;;2.74;100.00
70546;BME280;58098;51.680;5.134;2022-11-21T06:28:34;100535.38;;;2.70;100.00
70546;BME280;58098;51.680;5.134;2022-11-21T06:31:07;100536.44;;;2.66;100.00
70546;BME280;58098;51.680;5.134;2022-11-21T06:33:34;100537.19;;;2.68;100.00
70546;BME280;58098;51.680;5.134;2022-11-21T06:36:05;100522.22;;;2.59;100.00
70546;BME280;58098;51.680;5.134;2022-11-21T06:38:31;100526.63;;;2.57;100.00
70546;BME280;58098;51.680;5.134;2022-11-21T06:40:56;100527.00;;;2.49;100.00
70546;BME280;58098;51.680;5.134;2022-11-21T06:43:22;100522.25;;;2.42;100.00
70546;BME280;58098;51.680;5.134;2022-11-21T06:45:47;100527.25;;;2.45;100.00
70546;BME280;58098;51.680;5.134;2022-11-21T06:48:12;100532.38;;;2.45;100.00
70546;BME280;58098;51.680;5.134;2022-11-21T06:50:37;100532.25;;;2.48;100.00
70546;BME280;58098;51.680;5.134;2022-11-21T06:53:03;100515.59;;;2.38;100.00
70546;BME280;58098;51.680;5.134;2022-11-21T06:55:29;100505.91;;;2.43;100.00
70546;BME280;58098;51.680;5.134;2022-11-21T06:57:58;100511.66;;;2.48;100.00
70546;BME280;58098;51.680;5.134;2022-11-21T07:00:25;100510.28;;;2.41;100.00
70546;BME280;58098;51.680;5.134;2022-11-21T07:02:52;100508.97;;;2.49;100.00
70546;BME280;58098;51.680;5.134;2022-11-21T07:05:18;100509.06;;;2.48;100.00
70546;BME280;58098;51.680;5.134;2022-11-21T07:07:43;100513.28;;;2.49;100.00
70546;BME280;58098;51.680;5.134;2022-11-21T07:10:08;100501.34;;;2.48;100.00
70546;BME280;58098;51.680;5.134;2022-11-21T07:12:34;100478.72;;;2.37;100.00
70546;BME280;58098;51.680;5.134;2022-11-21T07:15:19;100493.44;;;2.51;100.00
70546;BME280;58098;51.680;5.134;2022-11-21T07:17:44;100481.50;;;2.50;100.00
70546;BME280;58098;51.680;5.134;2022-11-21T07:20:10;100517.81;;;2.61;100.00
70546;BME280;58098;51.680;5.134;2022-11-21T07:22:35;100499.03;;;2.59;100.00
70546;BME280;58098;51.680;5.134;2022-11-21T07:25:01;100509.63;;;2.70;100.00
70546;BME280;58098;51.680;5.134;2022-11-21T07:27:26;100505.97;;;2.74;100.00
70546;BME280;58098;51.680;5.134;2022-11-21T07:29:51;100491.25;;;2.76;100.00
70546;BME280;58098;51.680;5.134;2022-11-21T07:32:17;100506.81;;;2.90;100.00
70546;BME280;58098;51.680;5.134;2022-11-21T07:34:42;100506.06;;;2.88;100.00
70546;BME280;58098;51.680;5.134;2022-11-21T07:37:07;100511.50;;;2.99;100.00
70546;BME280;58098;51.680;5.134;2022-11-21T07:39:32;100502.09;;;2.98;100.00
70546;BME280;58098;51.680;5.134;2022-11-21T07:41:58;100522.56;;;3.17;100.00
70546;BME280;58098;51.680;5.134;2022-11-21T07:44:23;100518.09;;;3.20;100.00
70546;BME280;58098;51.680;5.134;2022-11-21T07:46:53;100505.19;;;3.20;100.00
70546;BME280;58098;51.680;5.134;2022-11-21T07:49:18;100496.47;;;3.23;100.00
70546;BME280;58098;51.680;5.134;2022-11-21T07:51:43;100498.44;;;3.33;100.00
70546;BME280;58098;51.680;5.134;2022-11-21T07:54:08;100492.53;;;3.31;100.00
70546;BME280;58098;51.680;5.134;2022-11-21T07:56:34;100459.06;;;3.16;100.00
70546;BME280;58098;51.680;5.134;2022-11-21T07:58:59;100498.44;;;3.49;100.00
70546;BME280;58098;51.680;5.134;2022-11-21T08:01:24;100487.81;;;3.55;100.00
70546;BME280;58098;51.680;5.134;2022-11-21T08:03:50;100483.28;;;3.59;100.00
70546;BME280;58098;51.680;5.134;2022-11-21T08:06:15;100474.44;;;3.63;100.00
70546;BME280;58098;51.680;5.134;2022-11-21T08:08:41;100468.84;;;3.70;100.00
70546;BME280;58098;51.680;5.134;2022-11-21T08:11:06;100492.34;;;3.95;100.00
70546;BME280;58098;51.680;5.134;2022-11-21T08:13:32;100472.69;;;4.09;100.00
70546;BME280;58098;51.680;5.134;2022-11-21T08:15:58;100471.59;;;4.27;100.00
70546;BME280;58098;51.680;5.134;2022-11-21T08:18:23;100452.50;;;4.29;100.00
70546;BME280;58098;51.680;5.134;2022-11-21T08:20:48;100457.31;;;4.35;100.00
70546;BME280;58098;51.680;5.134;2022-11-21T08:23:14;100464.41;;;4.46;100.00
70546;BME280;58098;51.680;5.134;2022-11-21T08:25:40;100464.13;;;4.50;100.00
70546;BME280;58098;51.680;5.134;2022-11-21T08:28:07;100459.06;;;4.49;100.00
70546;BME280;58098;51.680;5.134;2022-11-21T08:30:33;100447.81;;;4.50;100.00
70546;BME280;58098;51.680;5.134;2022-11-21T08:32:59;100445.97;;;4.52;100.00
70546;BME280;58098;51.680;5.134;2022-11-21T08:35:26;100436.81;;;4.46;100.00
70546;BME280;58098;51.680;5.134;2022-11-21T08:37:58;100441.81;;;4.49;100.00
70546;BME280;58098;51.680;5.134;2022-11-21T08:40:25;100439.78;;;4.54;100.00
70546;BME280;58098;51.680;5.134;2022-11-21T08:42:58;100435.16;;;4.45;100.00
70546;BME280;58098;51.680;5.134;2022-11-21T08:45:24;100444.13;;;4.54;100.00
70546;BME280;58098;51.680;5.134;2022-11-21T08:47:50;100445.78;;;4.55;100.00
70546;BME280;58098;51.680;5.134;2022-11-21T08:50:16;100431.47;;;4.49;100.00
70546;BME280;58098;51.680;5.134;2022-11-21T08:52:41;100425.75;;;4.44;100.00
70546;BME280;58098;51.680;5.134;2022-11-21T08:55:07;100419.13;;;4.54;100.00
70546;BME280;58098;51.680;5.134;2022-11-21T08:57:37;100436.81;;;4.60;100.00
70546;BME280;58098;51.680;5.134;2022-11-21T09:00:02;100429.63;;;4.65;100.00
70546;BME280;58098;51.680;5.134;2022-11-21T09:02:28;100432.38;;;4.62;100.00
70546;BME280;58098;51.680;5.134;2022-11-21T09:04:53;100429.53;;;4.67;100.00
70546;BME280;58098;51.680;5.134;2022-11-21T09:07:18;100426.69;;;4.72;100.00
70546;BME280;58098;51.680;5.134;2022-11-21T09:09:44;100425.72;;;4.73;100.00
70546;BME280;58098;51.680;5.134;2022-11-21T09:12:09;100425.38;;;4.79;100.00
70546;BME280;58098;51.680;5.134;2022-11-21T09:14:34;100417.78;;;4.76;100.00
70546;BME280;58098;51.680;5.134;2022-11-21T09:17:18;100422.59;;;4.82;100.00
70546;BME280;58098;51.680;5.134;2022-11-21T09:20:02;100410.78;;;4.78;100.00
70546;BME280;58098;51.680;5.134;2022-11-21T09:22:28;100407.91;;;4.82;100.00
70546;BME280;58098;51.680;5.134;2022-11-21T09:24:53;100417.69;;;4.91;100.00
70546;BME280;58098;51.680;5.134;2022-11-21T09:27:18;100424.44;;;4.94;100.00
70546;BME280;58098;51.680;5.134;2022-11-21T09:29:44;100423.19;;;4.99;100.00
70546;BME280;58098;51.680;5.134;2022-11-21T09:32:09;100401.16;;;4.94;100.00
70546;BME280;58098;51.680;5.134;2022-11-21T09:34:34;100405.19;;;4.98;100.00
70546;BME280;58098;51.680;5.134;2022-11-21T09:37:00;100417.34;;;5.10;100.00
70546;BME280;58098;51.680;5.134;2022-11-21T09:39:25;100401.66;;;5.13;100.00
70546;BME280;58098;51.680;5.134;2022-11-21T09:47:26;100400.38;;;5.32;100.00
70546;BME280;58098;51.680;5.134;2022-11-21T09:50:04;100396.78;;;5.35;100.00
70546;BME280;58098;51.680;5.134;2022-11-21T09:55:09;100375.31;;;5.33;100.00
70546;BME280;58098;51.680;5.134;2022-11-21T09:57:40;100356.09;;;5.37;100.00
70546;BME280;58098;51.680;5.134;2022-11-21T10:00:22;100367.19;;;5.39;100.00
70546;BME280;58098;51.680;5.134;2022-11-21T10:02:49;100361.28;;;5.37;100.00
70546;BME280;58098;51.680;5.134;2022-11-21T10:05:16;100376.72;;;5.51;100.00
70546;BME280;58098;51.680;5.134;2022-11-21T10:07:42;100374.47;;;5.59;100.00
70546;BME280;58098;51.680;5.134;2022-11-21T10:18:34;100359.91;;;5.83;100.00
70546;BME280;58098;51.680;5.134;2022-11-21T10:21:31;100355.47;;;5.85;100.00
70546;BME280;58098;51.680;5.134;2022-11-21T10:27:04;100343.44;;;5.84;100.00
70546;BME280;58098;51.680;5.134;2022-11-21T10:29:42;100336.44;;;5.86;100.00
70546;BME280;58098;51.680;5.134;2022-11-21T10:32:20;100315.25;;;5.80;100.00
70546;BME280;58098;51.680;5.134;2022-11-21T10:34:50;100329.47;;;5.87;100.00
70546;BME280;58098;51.680;5.134;2022-11-21T10:39:53;100294.75;;;5.77;100.00
70546;BME280;58098;51.680;5.134;2022-11-21T10:42:31;100303.69;;;5.85;100.00
70546;BME280;58098;51.680;5.134;2022-11-21T10:44:59;100297.97;;;5.80;100.00
70546;BME280;58098;51.680;5.134;2022-11-21T10:47:42;100312.59;;;5.94;100.00
70546;BME280;58098;51.680;5.134;2022-11-21T10:52:43;100302.22;;;6.07;100.00
70546;BME280;58098;51.680;5.134;2022-11-21T10:55:12;100273.72;;;6.07;100.00
70546;BME280;58098;51.680;5.134;2022-11-21T11:00:13;100289.72;;;6.37;100.00
70546;BME280;58098;51.680;5.134;2022-11-21T11:02:41;100269.00;;;6.37;100.00
70546;BME280;58098;51.680;5.134;2022-11-21T11:05:26;100271.22;;;6.54;100.00
70546;BME280;58098;51.680;5.134;2022-11-21T11:08:12;100258.28;;;6.54;100.00
70546;BME280;58098;51.680;5.134;2022-11-21T11:10:43;100264.94;;;6.69;100.00
70546;BME280;58098;51.680;5.134;2022-11-21T11:18:24;100255.13;;;6.85;100.00
70546;BME280;58098;51.680;5.134;2022-11-21T11:20:50;100249.09;;;6.85;100.00
70546;BME280;58098;51.680;5.134;2022-11-21T11:25:49;100242.09;;;6.74;100.00
70546;BME280;58098;51.680;5.134;2022-11-21T11:28:15;100227.38;;;6.75;100.00
70546;BME280;58098;51.680;5.134;2022-11-21T11:30:40;100231.56;;;6.88;100.00
70546;BME280;58098;51.680;5.134;2022-11-21T11:33:26;100234.88;;;6.90;100.00
70546;BME280;58098;51.680;5.134;2022-11-21T11:35:54;100186.69;;;6.64;100.00
70546;BME280;58098;51.680;5.134;2022-11-21T11:38:24;100208.88;;;6.79;100.00
70546;BME280;58098;51.680;5.134;2022-11-21T11:40:51;100168.56;;;6.64;100.00
70546;BME280;58098;51.680;5.134;2022-11-21T11:49:28;100182.03;;;6.91;100.00
70546;BME280;58098;51.680;5.134;2022-11-21T11:51:58;100172.28;;;6.95;100.00
70546;BME280;58098;51.680;5.134;2022-11-21T11:54:29;100163.56;;;6.96;100.00
70546;BME280;58098;51.680;5.134;2022-11-21T11:56:58;100145.03;;;6.89;100.00
70546;BME280;58098;51.680;5.134;2022-11-21T11:59:38;100150.47;;;6.97;100.00
70546;BME280;58098;51.680;5.134;2022-11-21T12:02:20;100134.09;;;6.97;100.00
70546;BME280;58098;51.680;5.134;2022-11-21T12:04:52;100125.94;;;6.90;100.00
70546;BME280;58098;51.680;5.134;2022-11-21T12:07:20;100121.69;;;6.89;100.00
70546;BME280;58098;51.680;5.134;2022-11-21T12:09:58;100123.13;;;6.93;100.00
70546;BME280;58098;51.680;5.134;2022-11-21T12:12:34;100126.44;;;6.95;100.00
70546;BME280;58098;51.680;5.134;2022-11-21T12:15:22;100112.41;;;6.98;100.00
70546;BME280;58098;51.680;5.134;2022-11-21T12:20:41;100094.25;;;6.98;100.00
70546;BME280;58098;51.680;5.134;2022-11-21T12:23:11;100104.25;;;7.13;100.00
70546;BME280;58098;51.680;5.134;2022-11-21T12:25:40;100103.22;;;7.16;100.00
70546;BME280;58098;51.680;5.134;2022-11-21T12:28:22;100100.16;;;7.33;100.00
70546;BME280;58098;51.680;5.134;2022-11-21T12:31:12;100108.03;;;7.43;100.00
70546;BME280;58098;51.680;5.134;2022-11-21T12:36:45;100088.69;;;7.58;100.00
70546;BME280;58098;51.680;5.134;2022-11-21T12:42:34;100078.28;;;7.69;100.00
70546;BME280;58098;51.680;5.134;2022-11-21T12:51:19;100047.09;;;7.80;100.00
70546;BME280;58098;51.680;5.134;2022-11-21T13:02:33;100009.28;;;7.87;100.00
70546;BME280;58098;51.680;5.134;2022-11-21T13:05:02;100003.41;;;7.85;100.00
70546;BME280;58098;51.680;5.134;2022-11-21T13:07:30;99982.38;;;7.88;100.00
70546;BME280;58098;51.680;5.134;2022-11-21T13:09:58;99983.69;;;7.82;100.00
70546;BME280;58098;51.680;5.134;2022-11-21T13:17:55;99966.28;;;7.94;100.00
70546;BME280;58098;51.680;5.134;2022-11-21T13:20:24;99964.19;;;7.88;100.00
70546;BME280;58098;51.680;5.134;2022-11-21T13:22:55;99964.31;;;7.86;100.00
70546;BME280;58098;51.680;5.134;2022-11-21T13:25:39;99952.16;;;7.87;100.00
70546;BME280;58098;51.680;5.134;2022-11-21T13:30:53;99947.13;;;7.74;100.00
70546;BME280;58098;51.680;5.134;2022-11-21T13:38:27;99922.84;;;7.44;100.00
70546;BME280;58098;51.680;5.134;2022-11-21T13:40:53;99935.56;;;7.47;100.00
70546;BME280;58098;51.680;5.134;2022-11-21T13:43:37;99936.66;;;7.44;100.00
70546;BME280;58098;51.680;5.134;2022-11-21T13:46:02;99930.03;;;7.40;100.00
70546;BME280;58098;51.680;5.134;2022-11-21T13:53:40;99900.75;;;7.17;100.00
70546;BME280;58098;51.680;5.134;2022-11-21T13:56:27;99920.78;;;7.26;100.00
70546;BME280;58098;51.680;5.134;2022-11-21T14:01:46;99904.06;;;7.19;100.00
70546;BME280;58098;51.680;5.134;2022-11-21T14:04:38;99899.81;;;7.18;100.00
70546;BME280;58098;51.680;5.134;2022-11-21T14:07:20;99887.91;;;7.16;100.00
70546;BME280;58098;51.680;5.134;2022-11-21T14:09:51;99882.63;;;7.06;100.00
70546;BME280;58098;51.680;5.134;2022-11-21T14:19:59;99838.22;;;7.00;100.00
70546;BME280;58098;51.680;5.134;2022-11-21T14:22:30;99866.97;;;7.08;100.00
70546;BME280;58098;51.680;5.134;2022-11-21T14:24:59;99864.22;;;7.09;100.00
70546;BME280;58098;51.680;5.134;2022-11-21T14:27:28;99857.50;;;7.07;100.00
70546;BME280;58098;51.680;5.134;2022-11-21T14:29:55;99843.63;;;6.97;100.00
70546;BME280;58098;51.680;5.134;2022-11-21T14:32:28;99857.66;;;7.05;100.00
70546;BME280;58098;51.680;5.134;2022-11-21T14:35:07;99844.91;;;7.02;100.00
70546;BME280;58098;51.680;5.134;2022-11-21T14:37:32;99833.50;;;6.94;100.00
70546;BME280;58098;51.680;5.134;2022-11-21T14:39:58;99839.03;;;7.00;100.00